Uhland, Texas
Current Conditions -  °F | °C
As of 9:50 AM on Friday 24 Oct 2014 (Local Time) from KHYI Reporting Station
Clear Clear  
Wind Chill: 68°   Ceiling: Unl
Heat Index: 68°   Visibility: 8mi
Dew Point: 54°   Wind: 3mph
Humidity: 60%   Direction: 160°SSE
Pressure: 30.2"   Gusts: NA
Location:  29.9978°N, 97.835°W
Report Text: KHYI 241450Z 16003KT 8SM CLR 20/12 A3020
Loading
Personal Weather Stations






























Interactive Weather Map
Tropical Storm Tracking
New forecast layout! Learn more

10-Day Weather Forecast

Advertisements
Track Severe Weather on mobile